Time;durP1;ratioP1;P1;durP2;ratioP2;P2;SDS_P1;SDS_P2;PMS_P1;PMS_P2;Temp;Humidity;BMP_temperature;BMP_pressure;BME280_temperature;BME280_humidity;BME280_pressure;Samples;Min_cycle;Max_cycle;Signal;HPM_P1;HPM_P2
2023/08/20 00:00:29;;;;;;;82.80;24.17;;;23.30;99.90;;;;;;5043201;28;20497;-83
2023/08/20 00:03:03;;;;;;;83.00;26.00;;;23.40;99.90;;;;;;5025569;28;20996;-83
2023/08/20 00:05:29;;;;;;;84.83;24.07;;;23.30;99.90;;;;;;5042734;28;20435;-83
2023/08/20 00:07:55;;;;;;;99.20;26.57;;;23.20;99.90;;;;;;5041147;28;20499;-82
2023/08/20 00:10:20;;;;;;;81.73;23.77;;;23.20;99.90;;;;;;5040713;28;20935;-82
2023/08/20 00:12:46;;;;;;;85.80;26.40;;;23.20;99.90;;;;;;5041679;28;20644;-83
2023/08/20 00:15:12;;;;;;;81.90;22.20;;;23.20;99.90;;;;;;5042525;28;20161;-83
2023/08/20 00:17:40;;;;;;;82.70;24.63;;;23.20;99.90;;;;;;5043337;28;20165;-83
2023/08/20 00:20:16;;;;;;;82.17;22.10;;;23.20;99.90;;;;;;5023759;28;20424;-83
2023/08/20 00:22:44;;;;;;;83.77;23.20;;;23.20;99.90;;;;;;5023418;28;20407;-83
2023/08/20 00:25:11;;;;;;;83.70;24.13;;;23.20;99.90;;;;;;5041048;28;20474;-83
2023/08/20 00:27:38;;;;;;;88.47;23.03;;;23.20;99.90;;;;;;5025048;28;20470;-83
2023/08/20 00:30:04;;;;;;;85.83;24.70;;;23.20;99.90;;;;;;5022592;28;20432;-83
2023/08/20 00:32:30;;;;;;;82.40;24.20;;;23.20;99.90;;;;;;5041013;28;20458;-82
2023/08/20 00:34:56;;;;;;;89.47;26.07;;;23.10;99.90;;;;;;5023236;28;20460;-83
2023/08/20 00:37:21;;;;;;;83.33;25.23;;;23.20;99.90;;;;;;5023604;28;20189;-82
2023/08/20 00:39:47;;;;;;;84.30;24.27;;;23.20;99.90;;;;;;5042241;28;20431;-83
2023/08/20 00:42:14;;;;;;;83.07;23.60;;;23.10;99.90;;;;;;5043082;28;20564;-83
2023/08/20 00:44:41;;;;;;;82.63;22.60;;;23.10;99.90;;;;;;5041035;28;20181;-83
2023/08/20 00:47:08;;;;;;;81.53;20.77;;;23.00;99.90;;;;;;5041229;28;20407;-83
2023/08/20 00:49:34;;;;;;;80.10;21.80;;;23.00;99.90;;;;;;5023671;28;20839;-82
2023/08/20 00:52:01;;;;;;;88.00;23.87;;;23.00;99.90;;;;;;5023312;28;20405;-82
2023/08/20 00:54:28;;;;;;;83.87;22.97;;;23.00;99.90;;;;;;5040954;28;21001;-82
2023/08/20 00:56:54;;;;;;;86.70;24.57;;;23.00;99.90;;;;;;5022751;28;20499;-82
2023/08/20 00:59:20;;;;;;;85.43;23.00;;;23.00;99.90;;;;;;5044280;28;20451;-82
2023/08/20 01:01:46;;;;;;;82.80;22.37;;;22.90;99.90;;;;;;5025238;28;20418;-83
2023/08/20 01:04:12;;;;;;;83.43;21.97;;;22.90;99.90;;;;;;5024589;28;20523;-83
2023/08/20 01:06:56;;;;;;;86.47;21.57;;;22.80;99.90;;;;;;5108884;22;20328;-83
2023/08/20 01:09:40;;;;;;;80.03;20.30;;;22.80;99.90;;;;;;5038837;28;20463;-82
2023/08/20 01:12:06;;;;;;;84.00;22.57;;;22.80;99.90;;;;;;5038756;28;20774;-83
2023/08/20 01:14:32;;;;;;;82.43;23.43;;;22.70;99.90;;;;;;5039083;28;20400;-81
2023/08/20 01:17:01;;;;;;;81.03;22.73;;;22.70;99.90;;;;;;5040184;28;20431;-81
2023/08/20 01:19:27;;;;;;;79.90;20.23;;;22.70;99.90;;;;;;5021064;28;20200;-81
2023/08/20 01:22:26;;;;;;;80.23;21.03;;;22.70;99.90;;;;;;5039017;28;20467;-81
2023/08/20 01:25:50;;;;;;;81.57;20.47;;;22.70;99.90;;;;;;5038923;28;20436;-81
2023/08/20 01:28:28;;;;;;;82.60;22.83;;;22.70;99.90;;;;;;5005616;28;20412;-81
2023/08/20 01:30:59;;;;;;;80.77;23.20;;;22.70;99.90;;;;;;5038394;28;20416;-81
2023/08/20 01:33:25;;;;;;;81.50;20.37;;;22.60;99.90;;;;;;5038895;28;20471;-81
2023/08/20 01:35:54;;;;;;;81.97;22.30;;;22.60;99.90;;;;;;5039002;28;20443;-81
2023/08/20 01:38:21;;;;;;;87.47;23.40;;;22.60;99.90;;;;;;5038499;28;20400;-81
2023/08/20 01:40:47;;;;;;;82.27;19.83;;;22.60;99.90;;;;;;5038181;28;20450;-81
2023/08/20 01:43:13;;;;;;;82.60;20.07;;;22.50;99.90;;;;;;5038069;28;20447;-81
2023/08/20 01:45:38;;;;;;;82.37;21.33;;;22.60;99.90;;;;;;5038667;28;20401;-81
2023/08/20 01:48:04;;;;;;;82.40;21.87;;;22.50;99.90;;;;;;5037918;28;20165;-81
2023/08/20 01:50:31;;;;;;;82.40;21.30;;;22.60;99.90;;;;;;5037800;28;20260;-81
2023/08/20 01:52:57;;;;;;;80.37;19.73;;;22.50;99.90;;;;;;5038597;28;20852;-81
2023/08/20 01:55:23;;;;;;;80.17;16.50;;;22.60;99.90;;;;;;5038593;28;20487;-81
2023/08/20 01:57:48;;;;;;;80.60;20.20;;;22.50;99.90;;;;;;5038124;28;20533;-81
2023/08/20 02:00:14;;;;;;;79.00;18.77;;;22.50;99.90;;;;;;5020355;28;20252;-81
2023/08/20 02:02:40;;;;;;;80.20;22.40;;;22.40;99.90;;;;;;5037507;28;20231;-81
2023/08/20 02:05:06;;;;;;;81.33;22.00;;;22.40;99.90;;;;;;5037741;28;20459;-81
2023/08/20 02:07:31;;;;;;;80.97;22.43;;;22.40;99.90;;;;;;5038421;28;20154;-81
2023/08/20 02:09:57;;;;;;;84.47;22.63;;;22.50;99.90;;;;;;5037756;28;20431;-82
2023/08/20 02:12:23;;;;;;;82.60;25.17;;;22.50;99.90;;;;;;5037788;28;20162;-81
2023/08/20 02:14:49;;;;;;;85.03;24.60;;;22.50;99.90;;;;;;5038298;28;20172;-81
2023/08/20 02:17:16;;;;;;;84.63;29.77;;;22.50;99.90;;;;;;5019642;28;20166;-81
2023/08/20 02:19:41;;;;;;;81.57;24.70;;;22.50;99.90;;;;;;5287583;22;20478;-81
2023/08/20 02:22:07;;;;;;;84.03;26.70;;;22.50;99.90;;;;;;5036414;28;20403;-81
2023/08/20 02:24:33;;;;;;;81.17;20.90;;;22.40;99.90;;;;;;5054358;28;20664;-81
2023/08/20 02:26:58;;;;;;;80.27;21.90;;;22.50;99.90;;;;;;5054451;28;20165;-81
2023/08/20 02:29:24;;;;;;;80.80;23.17;;;22.50;99.90;;;;;;5036322;28;20185;-81
2023/08/20 02:31:49;;;;;;;81.13;27.70;;;22.40;99.90;;;;;;5054272;28;20157;-81
2023/08/20 02:34:15;;;;;;;82.27;25.73;;;22.40;99.90;;;;;;5054314;28;20698;-81
2023/08/20 02:36:41;;;;;;;86.33;26.43;;;22.30;99.90;;;;;;5054140;28;20568;-81
2023/08/20 02:39:07;;;;;;;85.40;25.80;;;22.30;99.90;;;;;;5054000;28;20441;-81
2023/08/20 02:41:36;;;;;;;80.30;22.43;;;22.40;99.90;;;;;;5055053;28;20161;-81
2023/08/20 02:44:03;;;;;;;84.10;22.73;;;22.40;99.90;;;;;;5053969;28;20446;-81
2023/08/20 02:46:28;;;;;;;83.60;25.23;;;22.40;99.90;;;;;;5054378;28;20404;-81
2023/08/20 02:48:54;;;;;;;81.57;21.83;;;22.30;99.90;;;;;;5053985;28;20403;-81
2023/08/20 02:51:20;;;;;;;83.17;24.43;;;22.30;99.90;;;;;;5054442;28;20408;-79
2023/08/20 02:53:45;;;;;;;85.90;28.23;;;22.30;99.90;;;;;;5056229;28;20164;-78
2023/08/20 02:56:11;;;;;;;88.83;28.07;;;22.30;99.90;;;;;;5057787;28;20223;-78
2023/08/20 02:58:37;;;;;;;83.17;28.17;;;22.30;99.90;;;;;;5057861;28;20219;-78
2023/08/20 03:01:02;;;;;;;83.10;23.63;;;22.30;99.90;;;;;;5057455;28;20612;-78
2023/08/20 03:03:28;;;;;;;80.50;26.10;;;22.40;99.90;;;;;;5057789;28;20258;-78
2023/08/20 03:05:54;;;;;;;81.57;23.93;;;22.40;99.90;;;;;;5057912;28;20165;-78
2023/08/20 03:08:19;;;;;;;84.97;26.10;;;22.30;99.90;;;;;;5057490;28;20161;-78
2023/08/20 03:10:45;;;;;;;79.80;21.93;;;22.30;99.90;;;;;;5039564;28;20185;-78
2023/08/20 03:13:11;;;;;;;78.57;21.73;;;22.30;99.90;;;;;;5057464;28;20210;-78
2023/08/20 03:15:36;;;;;;;82.40;25.60;;;22.30;99.90;;;;;;5056971;28;20750;-78
2023/08/20 03:18:03;;;;;;;81.40;25.80;;;22.30;99.90;;;;;;5057340;28;20478;-78
2023/08/20 03:20:31;;;;;;;82.37;29.60;;;22.30;99.90;;;;;;5057084;28;20192;-78
2023/08/20 03:22:57;;;;;;;80.00;23.03;;;22.30;99.90;;;;;;5057060;28;20404;-78
2023/08/20 03:25:23;;;;;;;81.77;25.03;;;22.30;99.90;;;;;;5057102;28;20475;-78
2023/08/20 03:27:49;;;;;;;82.50;24.13;;;22.20;99.90;;;;;;5057052;28;20425;-78
2023/08/20 03:30:15;;;;;;;78.40;22.70;;;22.20;99.90;;;;;;5057043;28;20946;-78
2023/08/20 03:32:44;;;;;;;81.93;27.63;;;22.20;99.90;;;;;;5057259;28;20397;-78
2023/08/20 03:35:09;;;;;;;79.77;24.57;;;22.20;99.90;;;;;;5057383;28;20247;-78
2023/08/20 03:37:35;;;;;;;82.70;26.20;;;22.20;99.90;;;;;;5056974;28;20842;-78
2023/08/20 03:40:02;;;;;;;80.50;23.37;;;22.20;99.90;;;;;;5057013;28;20668;-78
2023/08/20 03:42:27;;;;;;;87.73;26.57;;;22.20;99.90;;;;;;5057062;28;20552;-78
2023/08/20 03:44:53;;;;;;;81.80;26.80;;;22.20;99.90;;;;;;5057026;28;20453;-78
2023/08/20 03:47:21;;;;;;;82.30;26.73;;;22.10;99.90;;;;;;5056748;28;20184;-78
2023/08/20 03:49:50;;;;;;;79.87;24.10;;;22.10;99.90;;;;;;5040009;28;20216;-78
2023/08/20 03:52:15;;;;;;;81.70;24.37;;;22.10;99.90;;;;;;5057600;28;20501;-78
2023/08/20 03:54:41;;;;;;;80.30;22.40;;;22.10;99.90;;;;;;5056477;28;20446;-78
2023/08/20 03:57:07;;;;;;;81.90;23.47;;;22.10;99.90;;;;;;5056675;28;20160;-78
2023/08/20 03:59:33;;;;;;;81.57;24.73;;;22.10;99.90;;;;;;5056783;28;20268;-78
2023/08/20 04:01:59;;;;;;;83.43;28.80;;;22.00;99.90;;;;;;5055959;28;20208;-78
2023/08/20 04:04:25;;;;;;;83.43;38.00;;;22.00;99.90;;;;;;5055946;28;20520;-78
2023/08/20 04:06:51;;;;;;;86.83;38.87;;;22.00;99.90;;;;;;5039153;28;20577;-79
2023/08/20 04:09:16;;;;;;;88.87;41.73;;;22.00;99.90;;;;;;5056116;28;20508;-78
2023/08/20 04:11:42;;;;;;;89.73;48.27;;;22.00;99.90;;;;;;5056239;28;20218;-78
2023/08/20 04:14:08;;;;;;;98.57;55.10;;;22.00;99.90;;;;;;5056175;28;20161;-78
2023/08/20 04:16:34;;;;;;;88.87;45.30;;;22.00;99.90;;;;;;5056863;28;20432;-78
2023/08/20 04:18:59;;;;;;;95.73;63.97;;;21.80;99.90;;;;;;5057186;28;20635;-78
2023/08/20 04:21:25;;;;;;;92.77;55.00;;;21.90;99.90;;;;;;5057180;28;20655;-79
2023/08/20 04:23:51;;;;;;;95.33;65.00;;;21.90;99.90;;;;;;5038401;28;20189;-78
2023/08/20 04:26:16;;;;;;;95.97;64.53;;;21.80;99.90;;;;;;5038674;28;20169;-78
2023/08/20 04:28:42;;;;;;;92.50;57.37;;;21.90;99.90;;;;;;5056735;28;20199;-78
2023/08/20 04:31:07;;;;;;;93.10;59.83;;;21.90;99.90;;;;;;5056128;28;20165;-78
2023/08/20 04:33:33;;;;;;;92.17;56.43;;;21.90;99.90;;;;;;5056643;28;20557;-78
2023/08/20 04:35:59;;;;;;;94.47;54.90;;;21.90;99.90;;;;;;5056811;28;20165;-78
2023/08/20 04:38:24;;;;;;;90.17;45.90;;;21.90;99.90;;;;;;5056292;28;20172;-78
2023/08/20 04:40:50;;;;;;;88.03;45.00;;;21.90;99.90;;;;;;5056451;28;20189;-78
2023/08/20 04:43:16;;;;;;;87.63;39.17;;;21.90;99.90;;;;;;5056460;28;20513;-78
2023/08/20 04:45:42;;;;;;;88.83;40.50;;;21.90;99.90;;;;;;5056419;28;20206;-78
2023/08/20 04:48:08;;;;;;;90.97;51.83;;;21.90;99.90;;;;;;5056475;28;20153;-78
2023/08/20 04:50:34;;;;;;;93.43;51.00;;;21.90;99.90;;;;;;5056641;28;20455;-78
2023/08/20 04:53:00;;;;;;;91.83;51.47;;;21.90;99.90;;;;;;5056195;28;20439;-78
2023/08/20 04:55:27;;;;;;;90.23;45.60;;;21.90;99.90;;;;;;5056240;28;20818;-78
2023/08/20 04:57:52;;;;;;;86.47;38.83;;;21.90;99.90;;;;;;5056363;28;20161;-78
2023/08/20 05:00:18;;;;;;;85.90;30.60;;;21.90;99.90;;;;;;5055844;28;20855;-78
2023/08/20 05:02:44;;;;;;;85.43;33.87;;;21.90;99.90;;;;;;5056124;28;20172;-78
2023/08/20 05:05:10;;;;;;;83.87;35.07;;;21.90;99.90;;;;;;5055656;28;20227;-78
2023/08/20 05:07:36;;;;;;;87.10;38.27;;;21.80;99.90;;;;;;5056414;28;20516;-78
2023/08/20 05:10:02;;;;;;;85.27;37.00;;;21.80;99.90;;;;;;5055813;28;20430;-78
2023/08/20 05:12:28;;;;;;;87.50;37.83;;;21.80;99.90;;;;;;5056389;28;20161;-78
2023/08/20 05:14:54;;;;;;;90.23;48.67;;;21.80;99.90;;;;;;5055331;28;20806;-78
2023/08/20 05:17:19;;;;;;;92.37;51.37;;;21.90;99.90;;;;;;5055500;28;20490;-78
2023/08/20 05:19:45;;;;;;;90.57;52.40;;;21.90;99.90;;;;;;5055612;28;20204;-78
2023/08/20 05:22:11;;;;;;;92.90;49.60;;;21.90;99.90;;;;;;5055926;28;20215;-78
2023/08/20 05:24:37;;;;;;;90.70;45.37;;;21.90;99.90;;;;;;5055923;28;20221;-78
2023/08/20 05:27:14;;;;;;;90.67;47.57;;;22.00;99.90;;;;;;5055496;28;20399;-78
2023/08/20 05:29:40;;;;;;;93.47;52.47;;;22.00;99.90;;;;;;5037849;28;20456;-78
2023/08/20 05:32:07;;;;;;;91.47;44.93;;;22.00;99.90;;;;;;5055502;28;20435;-78
2023/08/20 05:34:32;;;;;;;89.67;46.90;;;22.00;99.90;;;;;;5037986;28;20524;-78
2023/08/20 05:36:58;;;;;;;93.00;43.47;;;22.10;99.90;;;;;;5054513;28;20494;-78
2023/08/20 05:39:25;;;;;;;88.27;39.97;;;22.10;99.90;;;;;;5055389;28;20664;-78
2023/08/20 05:41:52;;;;;;;90.80;39.07;;;22.10;99.90;;;;;;5054436;28;20179;-78
2023/08/20 05:44:17;;;;;;;93.17;43.60;;;22.10;99.90;;;;;;5037460;28;20442;-78
2023/08/20 05:46:43;;;;;;;91.83;43.80;;;22.20;99.90;;;;;;5055524;28;20406;-78
2023/08/20 05:49:09;;;;;;;95.13;41.90;;;22.20;99.90;;;;;;5054593;28;20184;-78
2023/08/20 05:51:34;;;;;;;91.37;43.60;;;22.20;99.90;;;;;;5054692;28;20403;-78
2023/08/20 05:54:00;;;;;;;98.50;38.40;;;22.20;99.90;;;;;;5055495;28;20169;-78
2023/08/20 05:56:26;;;;;;;92.93;36.40;;;22.30;99.90;;;;;;5055278;28;20247;-78
2023/08/20 05:58:51;;;;;;;90.10;29.60;;;22.20;99.90;;;;;;5173188;22;20257;-79
2023/08/20 06:01:17;;;;;;;93.63;39.10;;;22.20;99.90;;;;;;5077310;28;20161;-78
2023/08/20 06:03:43;;;;;;;98.67;39.63;;;22.30;99.90;;;;;;5077003;28;20220;-78
2023/08/20 06:06:08;;;;;;;94.07;42.40;;;22.30;99.90;;;;;;5076845;28;20221;-78
2023/08/20 06:08:34;;;;;;;93.67;43.10;;;22.30;99.90;;;;;;5077420;28;20164;-78
2023/08/20 06:10:59;;;;;;;89.87;37.27;;;22.30;99.90;;;;;;5076551;28;20517;-78
2023/08/20 06:13:25;;;;;;;93.70;43.77;;;22.30;99.90;;;;;;5076948;28;20164;-78
2023/08/20 06:15:51;;;;;;;102.67;48.97;;;22.30;99.90;;;;;;5076724;28;20704;-78
2023/08/20 06:18:16;;;;;;;91.60;40.17;;;22.40;99.90;;;;;;5077225;28;20688;-78
2023/08/20 06:20:42;;;;;;;91.57;38.03;;;22.40;99.90;;;;;;5076734;28;20547;-78
2023/08/20 06:23:08;;;;;;;91.40;36.63;;;22.50;99.90;;;;;;5076752;28;20642;-78
2023/08/20 06:25:33;;;;;;;95.20;37.13;;;22.50;99.90;;;;;;5076947;28;20204;-78
2023/08/20 06:27:59;;;;;;;91.47;38.47;;;22.60;99.90;;;;;;5079928;28;20194;-78
2023/08/20 06:30:25;;;;;;;95.97;48.87;;;22.60;99.90;;;;;;5081360;28;20639;-79
2023/08/20 06:32:50;;;;;;;91.80;39.93;;;22.60;99.90;;;;;;5078973;28;20221;-79
2023/08/20 06:35:16;;;;;;;88.63;26.07;;;22.80;99.90;;;;;;5078017;28;20209;-79
2023/08/20 06:37:42;;;;;;;92.47;29.63;;;22.80;99.90;;;;;;5078022;28;20175;-78
2023/08/20 06:40:08;;;;;;;90.83;34.87;;;22.80;99.90;;;;;;5078084;28;20422;-79
2023/08/20 06:42:34;;;;;;;88.47;30.07;;;22.80;99.90;;;;;;5078439;28;20168;-79
2023/08/20 06:45:00;;;;;;;86.23;26.17;;;22.80;99.90;;;;;;5077783;28;20506;-79
2023/08/20 06:47:26;;;;;;;91.27;29.43;;;22.80;99.90;;;;;;5077890;28;20160;-79
2023/08/20 06:49:51;;;;;;;91.30;30.07;;;22.80;99.90;;;;;;5059630;28;20433;-79
2023/08/20 06:52:17;;;;;;;89.47;25.20;;;22.80;99.90;;;;;;5077417;28;20391;-79
2023/08/20 06:54:44;;;;;;;85.50;23.90;;;22.80;99.90;;;;;;5078111;28;20164;-79
2023/08/20 06:57:10;;;;;;;92.17;25.30;;;22.90;99.90;;;;;;5078411;28;20920;-79
2023/08/20 06:59:36;;;;;;;87.27;29.67;;;23.00;99.90;;;;;;5077819;28;20430;-78
2023/08/20 07:02:03;;;;;;;88.87;30.67;;;22.90;99.90;;;;;;5077463;28;20157;-78
2023/08/20 07:04:29;;;;;;;88.03;27.03;;;22.90;99.90;;;;;;5060612;28;20180;-78
2023/08/20 07:06:54;;;;;;;85.30;22.80;;;22.90;99.90;;;;;;5199377;23;20494;-83
2023/08/20 07:09:23;;;;;;;89.80;27.50;;;22.90;99.90;;;;;;5040473;28;20749;-83
2023/08/20 07:11:49;;;;;;;89.20;29.30;;;22.90;99.90;;;;;;5040913;28;20162;-83
2023/08/20 07:14:14;;;;;;;91.53;35.23;;;23.00;99.90;;;;;;5040689;28;20428;-83
2023/08/20 07:16:40;;;;;;;93.97;33.40;;;22.90;99.90;;;;;;5040730;28;20174;-83
2023/08/20 07:19:05;;;;;;;92.77;35.97;;;23.10;99.90;;;;;;5022256;28;20192;-83
2023/08/20 07:21:31;;;;;;;93.93;34.87;;;23.20;99.90;;;;;;5040428;28;20227;-83
2023/08/20 07:24:00;;;;;;;94.80;40.23;;;23.10;99.90;;;;;;5040550;28;20197;-83
2023/08/20 07:26:26;;;;;;;96.93;38.47;;;23.10;99.90;;;;;;5040362;28;20162;-83
2023/08/20 07:28:58;;;;;;;99.20;40.83;;;23.10;99.90;;;;;;5039646;28;20410;-82
2023/08/20 07:31:29;;;;;;;96.13;39.70;;;23.10;99.90;;;;;;5040296;28;20720;-83
2023/08/20 07:34:02;;;;;;;98.77;42.23;;;23.10;99.90;;;;;;5040680;28;20408;-83
2023/08/20 07:36:28;;;;;;;94.60;38.03;;;23.10;99.90;;;;;;5022701;28;20415;-83
2023/08/20 07:38:55;;;;;;;96.80;38.13;;;23.10;99.90;;;;;;5038702;28;20953;-82
2023/08/20 07:41:21;;;;;;;99.27;39.97;;;23.10;99.90;;;;;;5039614;28;20404;-83
2023/08/20 07:43:48;;;;;;;96.37;42.93;;;23.00;99.90;;;;;;5040004;28;20439;-83
2023/08/20 07:46:15;;;;;;;103.87;44.10;;;23.00;99.90;;;;;;5040156;28;20899;-82
2023/08/20 07:48:40;;;;;;;97.57;38.67;;;23.10;99.90;;;;;;5039360;28;20431;-82
2023/08/20 07:51:07;;;;;;;99.07;47.70;;;23.10;99.90;;;;;;5022334;28;20444;-83
2023/08/20 07:53:33;;;;;;;95.20;35.77;;;23.20;99.90;;;;;;5040066;28;20636;-83
2023/08/20 07:56:00;;;;;;;94.90;31.57;;;23.20;99.90;;;;;;5039542;28;20410;-83
2023/08/20 07:58:26;;;;;;;92.67;31.27;;;23.30;99.90;;;;;;5021834;28;20519;-81
2023/08/20 08:00:51;;;;;;;93.97;33.83;;;23.40;99.90;;;;;;5038921;28;20447;-82
2023/08/20 08:03:17;;;;;;;93.37;37.00;;;23.40;99.90;;;;;;5021299;28;20174;-82
2023/08/20 08:05:48;;;;;;;105.87;48.07;;;23.40;99.90;;;;;;5039606;28;20193;-82
2023/08/20 08:08:17;;;;;;;96.20;41.20;;;23.40;99.90;;;;;;5021941;28;20170;-83
2023/08/20 08:10:44;;;;;;;92.30;33.10;;;23.40;99.90;;;;;;5040066;28;20452;-84
2023/08/20 08:13:11;;;;;;;91.53;33.47;;;23.40;99.90;;;;;;5021557;28;20814;-83
2023/08/20 08:15:37;;;;;;;96.03;31.80;;;23.40;99.90;;;;;;5039096;28;20415;-83
2023/08/20 08:18:03;;;;;;;94.27;31.60;;;23.50;99.90;;;;;;5040097;28;20803;-83
2023/08/20 08:20:29;;;;;;;97.80;31.40;;;23.50;99.90;;;;;;5039609;28;20561;-84
2023/08/20 08:22:54;;;;;;;93.40;31.63;;;23.60;99.90;;;;;;5043482;28;20440;-82
2023/08/20 08:25:22;;;;;;;92.83;32.53;;;23.60;99.90;;;;;;5043184;28;20220;-82
2023/08/20 08:27:48;;;;;;;92.10;32.03;;;23.60;99.90;;;;;;5045321;28;20177;-83
2023/08/20 08:30:14;;;;;;;92.10;32.17;;;23.70;99.90;;;;;;5025049;28;20435;-83
2023/08/20 08:32:40;;;;;;;99.40;29.90;;;23.70;99.90;;;;;;5028147;28;20173;-82
2023/08/20 08:35:07;;;;;;;88.00;27.23;;;23.80;99.90;;;;;;5042986;28;20164;-83
2023/08/20 08:37:32;;;;;;;89.47;28.67;;;23.70;99.90;;;;;;5027543;28;20443;-83
2023/08/20 08:39:58;;;;;;;90.00;27.60;;;23.80;99.90;;;;;;5046905;28;20420;-83
2023/08/20 08:42:24;;;;;;;92.37;25.00;;;23.90;99.90;;;;;;5043240;28;20229;-83
2023/08/20 08:44:53;;;;;;;86.10;22.73;;;23.90;99.90;;;;;;5025132;28;20243;-83
2023/08/20 08:47:21;;;;;;;96.20;29.23;;;23.90;99.90;;;;;;5025356;28;20176;-83
2023/08/20 08:49:48;;;;;;;88.50;22.63;;;23.90;99.90;;;;;;5024728;28;20939;-83
2023/08/20 08:52:15;;;;;;;86.03;22.63;;;24.00;99.90;;;;;;5022268;28;20428;-82
2023/08/20 08:54:41;;;;;;;87.87;25.13;;;24.00;99.90;;;;;;5022852;28;20812;-82
2023/08/20 08:57:07;;;;;;;86.73;25.87;;;24.20;99.90;;;;;;5022572;28;20408;-83
2023/08/20 08:59:33;;;;;;;83.83;24.00;;;24.20;99.90;;;;;;5023758;28;20426;-83
2023/08/20 09:01:59;;;;;;;86.30;24.40;;;24.20;99.90;;;;;;5040990;28;20426;-83
2023/08/20 09:04:25;;;;;;;91.50;25.00;;;24.30;99.90;;;;;;5040546;28;20198;-83
2023/08/20 09:06:52;;;;;;;86.40;26.60;;;24.30;99.90;;;;;;5041759;28;20186;-82
2023/08/20 09:09:20;;;;;;;84.37;24.23;;;24.40;99.90;;;;;;5042343;28;20428;-82
2023/08/20 09:11:47;;;;;;;84.77;24.53;;;24.30;99.90;;;;;;5023573;28;20428;-83
2023/08/20 09:14:24;;;;;;;86.03;25.10;;;24.50;99.90;;;;;;5023023;28;20453;-83
2023/08/20 09:16:58;;;;;;;89.33;24.40;;;24.50;99.90;;;;;;5022589;28;20783;-83
2023/08/20 09:19:24;;;;;;;85.90;28.63;;;24.60;99.90;;;;;;5042033;28;20436;-83
2023/08/20 09:21:52;;;;;;;85.87;28.07;;;24.60;99.90;;;;;;5043192;28;20412;-83
2023/08/20 09:24:32;;;;;;;84.67;23.03;;;24.70;99.90;;;;;;5027397;28;20457;-83
2023/08/20 09:27:00;;;;;;;84.13;23.47;;;24.70;99.90;;;;;;5041419;28;20836;-84
2023/08/20 09:29:26;;;;;;;82.70;19.37;;;24.80;99.90;;;;;;5041419;28;20484;-83
2023/08/20 09:32:01;;;;;;;81.83;23.20;;;24.80;99.90;;;;;;5023424;28;20410;-83
2023/08/20 09:34:37;;;;;;;87.60;21.40;;;25.00;99.90;;;;;;5024252;28;20172;-83
2023/08/20 09:37:03;;;;;;;83.43;18.53;;;25.20;99.90;;;;;;5025643;28;20768;-83
2023/08/20 09:39:29;;;;;;;86.10;16.33;;;25.30;99.90;;;;;;5026158;28;20514;-83
2023/08/20 09:41:56;;;;;;;82.30;16.80;;;25.30;99.90;;;;;;5027575;28;20271;-83
2023/08/20 09:44:23;;;;;;;83.53;17.73;;;25.40;99.90;;;;;;5026564;28;20239;-83
2023/08/20 09:46:49;;;;;;;83.77;23.90;;;25.50;97.30;;;;;;5043046;28;20432;-83
2023/08/20 09:49:19;;;;;;;82.03;25.20;;;25.60;94.50;;;;;;5042449;28;20485;-83
2023/08/20 09:51:49;;;;;;;83.33;25.10;;;25.70;94.90;;;;;;5025539;28;20180;-83
2023/08/20 09:54:31;;;;;;;88.97;36.30;;;25.90;92.70;;;;;;5026793;28;20420;-83
2023/08/20 09:57:01;;;;;;;90.63;44.27;;;26.10;83.10;;;;;;5044141;28;20387;-83
2023/08/20 09:59:27;;;;;;;93.20;47.97;;;26.20;61.60;;;;;;5025710;28;20439;-84
2023/08/20 10:01:54;;;;;;;93.70;41.80;;;26.20;62.80;;;;;;5025284;28;20419;-83
2023/08/20 10:04:21;;;;;;;89.60;40.93;;;26.30;54.20;;;;;;5021983;28;20543;-82
2023/08/20 10:06:49;;;;;;;89.50;37.37;;;26.30;56.40;;;;;;5022619;28;20427;-83
2023/08/20 10:09:15;;;;;;;91.20;38.50;;;26.50;52.90;;;;;;5024900;28;20958;-82
2023/08/20 10:11:41;;;;;;;81.77;19.50;;;26.70;45.90;;;;;;5025276;28;20412;-83
2023/08/20 10:14:07;;;;;;;83.10;18.57;;;26.80;29.40;;;;;;5025212;28;20420;-83
2023/08/20 10:16:33;;;;;;;79.97;16.80;;;27.00;26.50;;;;;;5041915;28;20969;-83
2023/08/20 10:19:03;;;;;;;83.20;19.63;;;27.20;20.80;;;;;;5023729;28;20424;-83
2023/08/20 10:21:29;;;;;;;80.83;16.60;;;27.50;20.60;;;;;;5022372;28;20432;-82
2023/08/20 10:23:55;;;;;;;79.87;16.63;;;27.60;6.70;;;;;;5022396;28;20447;-83
2023/08/20 10:26:21;;;;;;;82.00;14.30;;;27.60;10.80;;;;;;5042638;28;20240;-83
2023/08/20 10:28:47;;;;;;;79.07;14.17;;;27.60;3.90;;;;;;5023099;28;20412;-82
2023/08/20 10:31:15;;;;;;;79.30;13.40;;;27.60;8.60;;;;;;5023812;28;20822;-83
2023/08/20 10:33:47;;;;;;;80.20;12.20;;;27.80;7.90;;;;;;5021941;28;20181;-83
2023/08/20 10:36:22;;;;;;;82.60;13.30;;;28.00;1.00;;;;;;5021227;28;20412;-82
2023/08/20 10:38:49;;;;;;;81.57;12.40;;;28.20;1.00;;;;;;5038626;28;20380;-82
2023/08/20 10:41:16;;;;;;;81.17;15.67;;;28.50;1.00;;;;;;5020628;28;20442;-82
2023/08/20 10:43:49;;;;;;;79.10;14.30;;;28.60;1.00;;;;;;5038476;28;20511;-82
2023/08/20 10:46:23;;;;;;;80.03;16.70;;;28.90;1.00;;;;;;5020328;28;20477;-82
2023/08/20 10:48:51;;;;;;;81.73;16.53;;;29.00;1.00;;;;;;5020776;28;20411;-82
2023/08/20 10:51:24;;;;;;;80.10;15.53;;;29.10;1.00;;;;;;5020961;28;20408;-82
2023/08/20 10:54:05;;;;;;;79.27;14.57;;;29.00;1.00;;;;;;5039668;28;20400;-82
2023/08/20 10:56:47;;;;;;;76.80;12.33;;;28.80;1.00;;;;;;5020851;28;20422;-83
2023/08/20 10:59:17;;;;;;;76.77;12.10;;;28.50;1.00;;;;;;5038648;28;20443;-83
2023/08/20 11:01:54;;;;;;;78.47;12.20;;;28.30;1.00;;;;;;5021416;28;20423;-83
2023/08/20 11:04:28;;;;;;;78.43;11.53;;;28.20;1.00;;;;;;5037876;28;20467;-82
2023/08/20 11:06:56;;;;;;;78.00;10.50;;;28.10;1.00;;;;;;5038628;28;20436;-82
2023/08/20 11:09:27;;;;;;;78.90;12.07;;;28.10;1.00;;;;;;5020639;28;20431;-82
2023/08/20 11:11:54;;;;;;;75.70;9.87;;;28.10;1.00;;;;;;5020451;28;20834;-82
2023/08/20 11:14:20;;;;;;;77.37;12.20;;;28.60;1.00;;;;;;5039981;28;20775;-83
2023/08/20 11:16:48;;;;;;;77.30;11.27;;;29.00;1.00;;;;;;5042153;28;20419;-83
2023/08/20 11:19:14;;;;;;;78.40;10.47;;;29.20;1.00;;;;;;5041997;28;20811;-83
2023/08/20 11:21:42;;;;;;;79.07;10.47;;;29.50;1.00;;;;;;5024001;28;20408;-83
2023/08/20 11:24:09;;;;;;;77.20;10.80;;;29.60;1.00;;;;;;5041549;28;20593;-83
2023/08/20 11:26:38;;;;;;;79.80;13.07;;;29.80;1.00;;;;;;5042500;28;20523;-83
2023/08/20 11:29:19;;;;;;;77.87;16.27;;;30.10;1.00;;;;;;5041822;28;20447;-83
2023/08/20 11:31:45;;;;;;;82.93;18.83;;;30.30;1.00;;;;;;5042141;28;20387;-83
2023/08/20 11:34:11;;;;;;;79.60;19.37;;;30.40;1.00;;;;;;5025641;28;20498;-83
2023/08/20 11:36:39;;;;;;;78.40;15.03;;;30.50;1.00;;;;;;5041103;28;20192;-83
2023/08/20 11:39:05;;;;;;;77.07;15.67;;;30.60;1.00;;;;;;5041255;28;20432;-83
2023/08/20 11:41:31;;;;;;;83.13;29.37;;;30.80;1.00;;;;;;5024530;28;20412;-83
2023/08/20 11:43:57;;;;;;;82.47;28.97;;;31.10;1.00;;;;;;5041485;28;20249;-83
2023/08/20 11:46:24;;;;;;;78.57;16.37;;;31.20;1.00;;;;;;5041541;28;20424;-83
2023/08/20 11:49:03;;;;;;;81.30;25.17;;;31.00;1.00;;;;;;5024433;28;20660;-83
2023/08/20 11:51:30;;;;;;;82.27;22.60;;;30.60;1.00;;;;;;5023516;28;20439;-83
2023/08/20 11:53:58;;;;;;;80.97;21.13;;;30.00;1.00;;;;;;5023463;28;20423;-83
2023/08/20 11:56:23;;;;;;;82.87;20.17;;;29.80;1.00;;;;;;5023109;28;20415;-83
2023/08/20 11:58:52;;;;;;;80.97;21.27;;;29.60;1.00;;;;;;5041169;28;20483;-83
2023/08/20 12:01:21;;;;;;;80.23;23.10;;;29.60;1.00;;;;;;5040918;28;20633;-83
2023/08/20 12:03:50;;;;;;;82.20;27.20;;;29.70;1.00;;;;;;5023823;28;20452;-83
2023/08/20 12:06:19;;;;;;;82.63;25.23;;;30.10;1.00;;;;;;5023312;28;20531;-83
2023/08/20 12:08:45;;;;;;;83.57;17.97;;;30.50;1.00;;;;;;5022723;28;20436;-83
2023/08/20 12:11:14;;;;;;;78.03;12.20;;;30.50;1.00;;;;;;5041132;28;20419;-83
2023/08/20 12:13:40;;;;;;;76.27;10.47;;;30.50;1.00;;;;;;5040953;28;20170;-83
2023/08/20 12:16:06;;;;;;;76.27;8.10;;;30.60;1.00;;;;;;5040590;28;20400;-83
2023/08/20 12:18:32;;;;;;;78.80;8.00;;;30.70;1.00;;;;;;5022833;28;20412;-83
2023/08/20 12:21:02;;;;;;;77.47;6.90;;;31.00;1.00;;;;;;5040174;28;20962;-83
2023/08/20 12:23:27;;;;;;;74.93;7.83;;;31.20;1.00;;;;;;5022042;28;20165;-82
2023/08/20 12:25:53;;;;;;;75.07;7.60;;;31.20;1.00;;;;;;5022292;28;20470;-82
2023/08/20 12:28:22;;;;;;;76.83;8.13;;;31.20;1.00;;;;;;5039963;28;20525;-83